Time;durP1;ratioP1;P1;durP2;ratioP2;P2;SDS_P1;SDS_P2;PMS_P1;PMS_P2;Temp;Humidity;BMP_temperature;BMP_pressure;BME280_temperature;BME280_humidity;BME280_pressure;Samples;Min_cycle;Max_cycle;Signal;HPM_P1;HPM_P2
2022/02/20 00:02:01;;;;;;;;;1.50;1.50;;;;;;;;5054149;28;10937;-76
2022/02/20 00:04:29;;;;;;;;;1.00;0.25;;;;;;;;5039453;28;11041;-77
2022/02/20 00:06:56;;;;;;;;;1.00;1.00;;;;;;;;5059169;28;10355;-76
2022/02/20 00:09:23;;;;;;;;;1.75;1.75;;;;;;;;5058190;28;10450;-78
2022/02/20 00:11:50;;;;;;;;;0.75;0.75;;;;;;;;5057153;28;10269;-76
2022/02/20 00:14:18;;;;;;;;;0.00;0.00;;;;;;;;5069851;28;10279;-78
2022/02/20 00:16:45;;;;;;;;;1.00;1.00;;;;;;;;5057744;28;10267;-77
2022/02/20 00:19:14;;;;;;;;;0.50;0.50;;;;;;;;5055467;28;10229;-77
2022/02/20 00:21:41;;;;;;;;;3.00;1.50;;;;;;;;5055945;28;10243;-76
2022/02/20 00:24:09;;;;;;;;;0.25;0.25;;;;;;;;5053944;28;10251;-77
2022/02/20 00:26:36;;;;;;;;;2.00;0.50;;;;;;;;5046743;28;10428;-77
2022/02/20 00:29:05;;;;;;;;;1.00;1.00;;;;;;;;5038728;28;10396;-76
2022/02/20 00:31:32;;;;;;;;;0.00;0.00;;;;;;;;5046055;28;10291;-77
2022/02/20 00:34:00;;;;;;;;;0.50;0.50;;;;;;;;5064541;28;10288;-77
2022/02/20 00:36:28;;;;;;;;;0.50;0.00;;;;;;;;5060895;28;10245;-77
2022/02/20 00:38:56;;;;;;;;;2.00;0.00;;;;;;;;5038708;28;10305;-77
2022/02/20 00:41:23;;;;;;;;;0.00;0.00;;;;;;;;5059471;28;10671;-77
2022/02/20 00:43:50;;;;;;;;;1.50;0.00;;;;;;;;5063946;28;10642;-77
2022/02/20 00:46:17;;;;;;;;;1.00;1.00;;;;;;;;5075160;28;10226;-76
2022/02/20 00:48:45;;;;;;;;;0.50;0.00;;;;;;;;5061758;28;10330;-77
2022/02/20 00:51:12;;;;;;;;;0.00;0.00;;;;;;;;5063040;28;10197;-78
2022/02/20 00:53:41;;;;;;;;;0.00;0.00;;;;;;;;5058870;28;10292;-78
2022/02/20 00:56:08;;;;;;;;;4.25;0.75;;;;;;;;5057181;28;10455;-78
2022/02/20 00:58:35;;;;;;;;;2.75;1.00;;;;;;;;5061371;28;10381;-75
2022/02/20 01:01:04;;;;;;;;;1.00;1.00;;;;;;;;5050453;28;10203;-76
2022/02/20 01:03:31;;;;;;;;;0.00;0.00;;;;;;;;5057653;28;10263;-76
2022/02/20 01:05:59;;;;;;;;;0.00;0.00;;;;;;;;5057172;28;10315;-76
2022/02/20 01:08:26;;;;;;;;;1.00;1.00;;;;;;;;5055854;28;10260;-75
2022/02/20 01:10:55;;;;;;;;;3.50;0.50;;;;;;;;5040794;28;10266;-75
2022/02/20 01:13:23;;;;;;;;;1.00;0.50;;;;;;;;5082069;28;10347;-77
2022/02/20 01:15:50;;;;;;;;;1.00;1.00;;;;;;;;5051537;28;10244;-75
2022/02/20 01:18:17;;;;;;;;;0.00;0.00;;;;;;;;5035460;28;11568;-77
2022/02/20 01:20:45;;;;;;;;;5.00;1.00;;;;;;;;5048703;28;10225;-77
2022/02/20 01:23:12;;;;;;;;;1.75;1.00;;;;;;;;5060427;28;10563;-76
2022/02/20 01:25:39;;;;;;;;;2.00;1.00;;;;;;;;5054741;28;10256;-77
2022/02/20 01:28:09;;;;;;;;;1.00;1.00;;;;;;;;5057615;28;10415;-77
2022/02/20 01:30:37;;;;;;;;;4.00;1.00;;;;;;;;5074930;28;10281;-79
2022/02/20 01:33:05;;;;;;;;;0.75;0.75;;;;;;;;5055641;28;10489;-76
2022/02/20 01:35:32;;;;;;;;;0.75;0.75;;;;;;;;5037693;28;10410;-76
2022/02/20 01:37:59;;;;;;;;;1.25;1.00;;;;;;;;5058490;28;10353;-76
2022/02/20 01:40:30;;;;;;;;;2.00;2.00;;;;;;;;5059720;28;10376;-78
2022/02/20 01:42:57;;;;;;;;;1.50;1.00;;;;;;;;5073389;28;10512;-76
2022/02/20 01:45:27;;;;;;;;;2.00;1.00;;;;;;;;5057728;28;10559;-76
2022/02/20 01:47:54;;;;;;;;;1.00;0.00;;;;;;;;5061169;28;10541;-77
2022/02/20 01:50:21;;;;;;;;;1.00;1.00;;;;;;;;5075192;28;10721;-77
2022/02/20 01:52:49;;;;;;;;;1.00;1.00;;;;;;;;5061070;28;10374;-75
2022/02/20 01:55:16;;;;;;;;;0.75;0.50;;;;;;;;5059656;28;10440;-75
2022/02/20 01:57:45;;;;;;;;;2.00;0.75;;;;;;;;5038958;28;10476;-78
2022/02/20 02:00:15;;;;;;;;;1.00;1.00;;;;;;;;5051962;28;10921;-76
2022/02/20 02:02:45;;;;;;;;;3.00;1.00;;;;;;;;5056869;28;10532;-76
2022/02/20 02:05:12;;;;;;;;;0.00;0.00;;;;;;;;5054168;28;10463;-77
2022/02/20 02:07:40;;;;;;;;;1.25;1.25;;;;;;;;5051020;28;10408;-76
2022/02/20 02:10:08;;;;;;;;;2.00;0.75;;;;;;;;5055824;28;10424;-76
2022/02/20 02:12:37;;;;;;;;;2.75;0.00;;;;;;;;5062101;28;10534;-76
2022/02/20 02:15:08;;;;;;;;;1.75;1.75;;;;;;;;5062152;28;10553;-76
2022/02/20 02:17:35;;;;;;;;;0.25;0.25;;;;;;;;5037588;28;10540;-76
2022/02/20 02:20:05;;;;;;;;;1.00;1.00;;;;;;;;5055190;28;10593;-76
2022/02/20 02:22:34;;;;;;;;;0.00;0.00;;;;;;;;5060835;28;10543;-77
2022/02/20 02:25:03;;;;;;;;;1.00;1.00;;;;;;;;5061763;28;10316;-78
2022/02/20 02:27:30;;;;;;;;;1.00;1.00;;;;;;;;5059391;28;10561;-78
2022/02/20 02:29:58;;;;;;;;;1.00;1.00;;;;;;;;5061306;28;10246;-78
2022/02/20 02:32:25;;;;;;;;;1.00;1.00;;;;;;;;5060187;28;10339;-75
2022/02/20 02:34:52;;;;;;;;;2.75;2.00;;;;;;;;5040807;28;10503;-77
2022/02/20 02:37:21;;;;;;;;;1.00;1.00;;;;;;;;5049808;28;10365;-76
2022/02/20 02:39:49;;;;;;;;;1.75;1.75;;;;;;;;5055540;28;10407;-75
2022/02/20 02:42:17;;;;;;;;;0.50;0.50;;;;;;;;5057184;28;10410;-76
2022/02/20 02:44:45;;;;;;;;;2.00;0.00;;;;;;;;5061642;28;10354;-76
2022/02/20 02:47:12;;;;;;;;;1.00;1.00;;;;;;;;5058247;28;10883;-78
2022/02/20 02:49:40;;;;;;;;;1.00;1.00;;;;;;;;5054438;28;10387;-78
2022/02/20 02:52:08;;;;;;;;;5.75;0.75;;;;;;;;5056437;28;10452;-76
2022/02/20 02:54:35;;;;;;;;;2.50;2.25;;;;;;;;5056950;28;10334;-78
2022/02/20 02:57:04;;;;;;;;;0.00;0.00;;;;;;;;5058261;28;11112;-77
2022/02/20 02:59:31;;;;;;;;;1.00;1.00;;;;;;;;5055285;28;10383;-78
2022/02/20 03:02:03;;;;;;;;;3.00;1.00;;;;;;;;5051589;28;10349;-76
2022/02/20 03:04:31;;;;;;;;;2.75;0.75;;;;;;;;5060988;28;10305;-76
2022/02/20 03:06:58;;;;;;;;;0.75;0.00;;;;;;;;5049372;28;10460;-75
2022/02/20 03:09:26;;;;;;;;;2.75;1.75;;;;;;;;5053378;28;10529;-77
2022/02/20 03:11:53;;;;;;;;;1.00;1.00;;;;;;;;5048855;28;11338;-79
2022/02/20 03:14:23;;;;;;;;;1.75;1.75;;;;;;;;5057288;28;10435;-78
2022/02/20 03:16:51;;;;;;;;;2.25;1.00;;;;;;;;5054078;28;10595;-75
2022/02/20 03:19:18;;;;;;;;;0.75;0.75;;;;;;;;5055333;28;10645;-78
2022/02/20 03:21:46;;;;;;;;;5.25;1.25;;;;;;;;5048213;28;10456;-78
2022/02/20 03:24:13;;;;;;;;;5.00;1.00;;;;;;;;5051431;28;11347;-78
2022/02/20 03:26:40;;;;;;;;;2.75;2.25;;;;;;;;5050950;28;10459;-75
2022/02/20 03:29:07;;;;;;;;;2.00;1.50;;;;;;;;5039650;28;10606;-75
2022/02/20 03:31:36;;;;;;;;;6.00;3.00;;;;;;;;5058748;28;11437;-75
2022/02/20 03:34:04;;;;;;;;;1.75;1.00;;;;;;;;5054053;28;10726;-75
2022/02/20 03:36:32;;;;;;;;;0.25;0.00;;;;;;;;5057223;28;10541;-75
2022/02/20 03:38:59;;;;;;;;;1.25;0.00;;;;;;;;5051917;28;10725;-75
2022/02/20 03:41:26;;;;;;;;;0.00;0.00;;;;;;;;5065973;28;10475;-77
2022/02/20 03:43:53;;;;;;;;;0.75;0.75;;;;;;;;5063467;28;10305;-77
2022/02/20 03:46:21;;;;;;;;;0.50;0.00;;;;;;;;5053667;28;10380;-76
2022/02/20 03:48:49;;;;;;;;;0.75;0.00;;;;;;;;5032293;28;10341;-76
2022/02/20 03:51:17;;;;;;;;;5.00;0.00;;;;;;;;5067384;28;10359;-76
2022/02/20 03:53:44;;;;;;;;;2.50;1.00;;;;;;;;5040745;28;10397;-76
2022/02/20 03:56:11;;;;;;;;;1.00;1.00;;;;;;;;5055090;28;10422;-76
2022/02/20 03:58:39;;;;;;;;;1.25;1.00;;;;;;;;5054079;28;10400;-76
2022/02/20 04:01:06;;;;;;;;;1.00;1.00;;;;;;;;5039258;28;10425;-77
2022/02/20 04:03:34;;;;;;;;;3.00;1.00;;;;;;;;5050450;28;11305;-76
2022/02/20 04:06:03;;;;;;;;;0.75;0.75;;;;;;;;5059470;28;11404;-76
2022/02/20 04:08:30;;;;;;;;;3.75;1.00;;;;;;;;5060782;28;10341;-76
2022/02/20 04:10:59;;;;;;;;;1.75;1.75;;;;;;;;5054443;28;10467;-76
2022/02/20 04:13:26;;;;;;;;;1.00;1.00;;;;;;;;5060946;28;10446;-76
2022/02/20 04:15:54;;;;;;;;;1.75;1.75;;;;;;;;5058621;28;10415;-76
2022/02/20 04:18:21;;;;;;;;;0.25;0.25;;;;;;;;5051803;28;10392;-77
2022/02/20 04:20:49;;;;;;;;;1.50;1.50;;;;;;;;5054698;28;10400;-76
2022/02/20 04:23:17;;;;;;;;;5.00;1.00;;;;;;;;5060240;28;10405;-76
2022/02/20 04:25:45;;;;;;;;;0.75;0.75;;;;;;;;5051003;28;10556;-78
2022/02/20 04:28:13;;;;;;;;;2.75;1.00;;;;;;;;5064005;28;10316;-77
2022/02/20 04:30:40;;;;;;;;;1.50;1.50;;;;;;;;5019792;28;10347;-77
2022/02/20 04:33:08;;;;;;;;;2.00;1.00;;;;;;;;5060549;28;10470;-77
2022/02/20 04:35:35;;;;;;;;;3.75;0.75;;;;;;;;5036078;28;10323;-76
2022/02/20 04:38:03;;;;;;;;;1.00;1.00;;;;;;;;5069120;28;10354;-77
2022/02/20 04:40:31;;;;;;;;;3.75;1.00;;;;;;;;5052237;28;10294;-76
2022/02/20 04:42:58;;;;;;;;;1.25;1.25;;;;;;;;5058796;28;11044;-78
2022/02/20 04:45:26;;;;;;;;;2.50;0.00;;;;;;;;5064826;28;10501;-77
2022/02/20 04:47:53;;;;;;;;;1.75;1.75;;;;;;;;5068097;28;10567;-78
2022/02/20 04:50:21;;;;;;;;;1.00;1.00;;;;;;;;5051247;28;10646;-77
2022/02/20 04:52:48;;;;;;;;;2.25;0.75;;;;;;;;5051330;28;10712;-78
2022/02/20 04:55:15;;;;;;;;;1.00;1.00;;;;;;;;5062238;28;10684;-76
2022/02/20 04:57:47;;;;;;;;;0.50;0.50;;;;;;;;5053844;28;10677;-76
2022/02/20 05:00:15;;;;;;;;;1.00;1.00;;;;;;;;5053663;28;10785;-77
2022/02/20 05:02:42;;;;;;;;;2.00;0.25;;;;;;;;5064558;28;11643;-77
2022/02/20 05:05:10;;;;;;;;;2.25;1.00;;;;;;;;5060521;28;10697;-77
2022/02/20 05:07:37;;;;;;;;;2.50;0.00;;;;;;;;5055126;28;10652;-78
2022/02/20 05:10:06;;;;;;;;;1.75;1.75;;;;;;;;5060720;28;10592;-76
2022/02/20 05:12:33;;;;;;;;;1.00;1.00;;;;;;;;5059268;28;10660;-78
2022/02/20 05:15:02;;;;;;;;;2.00;0.50;;;;;;;;5058093;28;11251;-76
2022/02/20 05:17:29;;;;;;;;;4.00;0.00;;;;;;;;5058522;28;10668;-76
2022/02/20 05:19:56;;;;;;;;;0.50;0.50;;;;;;;;5055767;28;10551;-77
2022/02/20 05:22:24;;;;;;;;;3.25;1.00;;;;;;;;5058077;28;10633;-78
2022/02/20 05:24:52;;;;;;;;;2.50;1.75;;;;;;;;5064263;28;10701;-78
2022/02/20 05:27:19;;;;;;;;;1.00;1.00;;;;;;;;5074684;28;10700;-78
2022/02/20 05:29:47;;;;;;;;;1.50;1.00;;;;;;;;5061583;28;11323;-78
2022/02/20 05:32:23;;;;;;;;;0.25;0.25;;;;;;;;5059098;28;11433;-76
2022/02/20 05:34:51;;;;;;;;;6.00;1.00;;;;;;;;5065885;28;10394;-77
2022/02/20 05:37:18;;;;;;;;;2.00;0.00;;;;;;;;5061896;28;10465;-77
2022/02/20 05:39:46;;;;;;;;;2.00;0.75;;;;;;;;5051598;28;10369;-76
2022/02/20 05:42:13;;;;;;;;;3.50;1.00;;;;;;;;5059191;28;10432;-78
2022/02/20 05:44:40;;;;;;;;;0.25;0.25;;;;;;;;5061108;28;10703;-79
2022/02/20 05:47:08;;;;;;;;;1.25;1.25;;;;;;;;5058615;28;10218;-77
2022/02/20 05:49:36;;;;;;;;;3.00;1.25;;;;;;;;5056306;28;10286;-76
2022/02/20 05:52:04;;;;;;;;;2.00;2.00;;;;;;;;5064816;28;10354;-76
2022/02/20 05:54:31;;;;;;;;;0.50;0.50;;;;;;;;5058983;28;11178;-77
2022/02/20 05:56:58;;;;;;;;;0.25;0.25;;;;;;;;5055288;28;10445;-77
2022/02/20 05:59:26;;;;;;;;;6.00;2.00;;;;;;;;5061943;28;10243;-77
2022/02/20 06:01:53;;;;;;;;;1.00;1.00;;;;;;;;5058349;28;10225;-77
2022/02/20 06:04:21;;;;;;;;;3.00;0.00;;;;;;;;5059116;28;10223;-77
2022/02/20 06:06:50;;;;;;;;;5.00;1.00;;;;;;;;5079353;28;10059;-77
2022/02/20 06:09:17;;;;;;;;;0.50;0.50;;;;;;;;5056533;28;10342;-76
2022/02/20 06:11:44;;;;;;;;;0.50;0.50;;;;;;;;5051944;28;10572;-74
2022/02/20 06:14:12;;;;;;;;;1.00;1.00;;;;;;;;5053966;28;10127;-74
2022/02/20 06:16:42;;;;;;;;;6.50;1.00;;;;;;;;5056564;28;10118;-76
2022/02/20 06:19:09;;;;;;;;;2.00;1.00;;;;;;;;5068489;28;10188;-78
2022/02/20 06:21:37;;;;;;;;;1.00;1.00;;;;;;;;5059652;28;10126;-76
2022/02/20 06:24:06;;;;;;;;;1.00;1.00;;;;;;;;5053021;28;11016;-75
2022/02/20 06:26:34;;;;;;;;;1.00;1.00;;;;;;;;5062450;28;10145;-75
2022/02/20 06:29:01;;;;;;;;;4.25;2.00;;;;;;;;5060105;28;10101;-75
2022/02/20 06:31:29;;;;;;;;;2.00;1.00;;;;;;;;5059350;28;10129;-76
2022/02/20 06:33:56;;;;;;;;;2.00;2.00;;;;;;;;5045024;28;10025;-76
2022/02/20 06:36:25;;;;;;;;;2.50;0.75;;;;;;;;5060944;28;10168;-74
2022/02/20 06:38:52;;;;;;;;;1.75;1.75;;;;;;;;5060533;28;10093;-78
2022/02/20 06:41:21;;;;;;;;;2.50;1.00;;;;;;;;5053020;28;10127;-76
2022/02/20 06:43:48;;;;;;;;;3.00;1.00;;;;;;;;5066047;28;10125;-76
2022/02/20 06:46:15;;;;;;;;;2.25;2.25;;;;;;;;5063041;28;10016;-78
2022/02/20 06:48:43;;;;;;;;;3.00;1.00;;;;;;;;5066628;28;10544;-81
2022/02/20 06:51:10;;;;;;;;;1.00;1.00;;;;;;;;5062820;28;10084;-73
2022/02/20 06:53:39;;;;;;;;;0.50;0.50;;;;;;;;5042230;28;10033;-77
2022/02/20 06:56:06;;;;;;;;;1.75;0.00;;;;;;;;5052659;28;10126;-74
2022/02/20 06:58:35;;;;;;;;;2.50;1.50;;;;;;;;5062549;28;10101;-79
2022/02/20 07:01:02;;;;;;;;;2.00;0.00;;;;;;;;5058418;28;10896;-79
2022/02/20 07:03:30;;;;;;;;;1.00;1.00;;;;;;;;5072470;28;9972;-80
2022/02/20 07:05:57;;;;;;;;;2.00;0.25;;;;;;;;5046840;28;9884;-80
2022/02/20 07:08:25;;;;;;;;;2.00;1.25;;;;;;;;5059318;28;10127;-77
2022/02/20 07:10:52;;;;;;;;;3.00;1.75;;;;;;;;5059569;28;10150;-79
2022/02/20 07:13:20;;;;;;;;;2.00;1.00;;;;;;;;5062221;28;9891;-77
2022/02/20 07:15:49;;;;;;;;;1.75;1.75;;;;;;;;5061041;28;10768;-83
2022/02/20 07:18:16;;;;;;;;;2.00;0.75;;;;;;;;5059960;28;10018;-79
2022/02/20 07:20:44;;;;;;;;;2.25;0.75;;;;;;;;5048881;28;9775;-78
2022/02/20 07:23:12;;;;;;;;;0.00;0.00;;;;;;;;5031419;28;10615;-80
2022/02/20 07:25:39;;;;;;;;;3.00;1.00;;;;;;;;5045374;28;10152;-77
2022/02/20 07:28:08;;;;;;;;;2.75;1.00;;;;;;;;5057968;28;10048;-78
2022/02/20 07:30:35;;;;;;;;;2.00;1.50;;;;;;;;5046816;28;9984;-82
2022/02/20 07:33:07;;;;;;;;;1.75;1.00;;;;;;;;5053329;28;10162;-80
2022/02/20 07:35:34;;;;;;;;;1.50;0.00;;;;;;;;5036515;28;10070;-78
2022/02/20 07:38:02;;;;;;;;;2.75;2.75;;;;;;;;5070788;28;10012;-78
2022/02/20 07:40:29;;;;;;;;;1.00;1.00;;;;;;;;5040223;28;9879;-81
2022/02/20 07:42:57;;;;;;;;;1.00;1.00;;;;;;;;5060247;28;10028;-82
2022/02/20 07:45:25;;;;;;;;;5.00;1.00;;;;;;;;5063232;28;9965;-79
2022/02/20 07:47:56;;;;;;;;;0.75;0.75;;;;;;;;5059898;28;10008;-79
2022/02/20 07:50:26;;;;;;;;;2.00;2.00;;;;;;;;5061662;28;9798;-79
2022/02/20 07:52:54;;;;;;;;;4.00;1.25;;;;;;;;5062828;28;9890;-79
2022/02/20 07:55:21;;;;;;;;;2.25;1.00;;;;;;;;5059648;28;10493;-80
2022/02/20 07:57:49;;;;;;;;;3.75;1.75;;;;;;;;5078304;28;10102;-78
2022/02/20 08:00:18;;;;;;;;;3.00;1.50;;;;;;;;5061688;28;10225;-80
2022/02/20 08:02:46;;;;;;;;;6.00;3.00;;;;;;;;5076037;28;10154;-78
2022/02/20 08:05:14;;;;;;;;;3.25;1.50;;;;;;;;5041757;28;10105;-78
2022/02/20 08:07:42;;;;;;;;;7.75;3.00;;;;;;;;5051132;28;10116;-78
2022/02/20 08:10:11;;;;;;;;;2.75;2.75;;;;;;;;5057886;28;10256;-78
2022/02/20 08:12:39;;;;;;;;;5.00;3.25;;;;;;;;5052409;28;10182;-78
2022/02/20 08:15:07;;;;;;;;;4.00;2.25;;;;;;;;5055846;28;10167;-78
2022/02/20 08:17:34;;;;;;;;;5.25;2.75;;;;;;;;5068697;28;10096;-76
2022/02/20 08:20:01;;;;;;;;;6.75;2.50;;;;;;;;5053123;28;10151;-80
2022/02/20 08:22:29;;;;;;;;;1.50;1.50;;;;;;;;5055763;28;10086;-77
2022/02/20 08:24:57;;;;;;;;;2.00;1.00;;;;;;;;5075896;28;10124;-80
2022/02/20 08:27:25;;;;;;;;;1.75;1.25;;;;;;;;5069891;28;9759;-81
2022/02/20 08:29:54;;;;;;;;;4.00;2.50;;;;;;;;5051976;28;10069;-77
2022/02/20 08:32:22;;;;;;;;;3.50;1.00;;;;;;;;5056511;28;9849;-81
2022/02/20 08:34:49;;;;;;;;;2.75;0.50;;;;;;;;5053206;28;9946;-79
2022/02/20 08:37:16;;;;;;;;;1.50;0.50;;;;;;;;5064914;28;9827;-81
2022/02/20 08:39:43;;;;;;;;;2.00;2.00;;;;;;;;5059244;28;9778;-79
2022/02/20 08:42:12;;;;;;;;;1.75;0.25;;;;;;;;5058677;28;9728;-77
2022/02/20 08:44:41;;;;;;;;;0.00;0.00;;;;;;;;5068773;28;9367;-79
2022/02/20 08:47:09;;;;;;;;;1.00;1.00;;;;;;;;5063867;28;9628;-81
2022/02/20 08:49:37;;;;;;;;;1.00;1.00;;;;;;;;5053476;28;9591;-81
2022/02/20 08:52:05;;;;;;;;;3.00;1.67;;;;;;;;5056811;28;9424;-77
2022/02/20 08:54:33;;;;;;;;;1.50;1.50;;;;;;;;5064389;28;9526;-80
2022/02/20 08:57:04;;;;;;;;;1.75;1.75;;;;;;;;5052469;28;9479;-77
2022/02/20 08:59:33;;;;;;;;;1.67;0.00;;;;;;;;5045183;28;9489;-82
2022/02/20 09:02:00;;;;;;;;;0.67;0.67;;;;;;;;5058103;28;9489;-78
2022/02/20 09:04:28;;;;;;;;;1.50;1.00;;;;;;;;5067144;28;9427;-79
2022/02/20 09:06:55;;;;;;;;;1.25;0.00;;;;;;;;5068152;28;9499;-76
2022/02/20 09:09:22;;;;;;;;;1.00;1.00;;;;;;;;5051794;28;9561;-79
2022/02/20 09:11:50;;;;;;;;;2.00;2.00;;;;;;;;5060355;28;9649;-84
2022/02/20 09:14:17;;;;;;;;;1.00;1.00;;;;;;;;5060692;28;10288;-86
2022/02/20 09:16:46;;;;;;;;;1.00;1.00;;;;;;;;5047375;28;9503;-78
2022/02/20 09:19:13;;;;;;;;;4.67;0.33;;;;;;;;5038759;28;9595;-78
2022/02/20 09:21:41;;;;;;;;;2.33;1.67;;;;;;;;5062387;28;9365;-79
2022/02/20 09:24:08;;;;;;;;;0.00;0.00;;;;;;;;5059418;28;9578;-79
2022/02/20 09:26:36;;;;;;;;;2.33;1.00;;;;;;;;5063786;28;9406;-83
2022/02/20 09:29:03;;;;;;;;;1.67;1.67;;;;;;;;5063616;28;9364;-77
2022/02/20 09:31:30;;;;;;;;;1.00;1.00;;;;;;;;5058856;28;9302;-76
2022/02/20 09:33:59;;;;;;;;;1.67;1.67;;;;;;;;5059769;28;9519;-77
2022/02/20 09:36:27;;;;;;;;;0.00;0.00;;;;;;;;5048149;28;9644;-76
2022/02/20 09:38:54;;;;;;;;;1.00;1.00;;;;;;;;5066044;28;9129;-77
2022/02/20 09:41:25;;;;;;;;;2.00;2.00;;;;;;;;5053607;28;9070;-78
2022/02/20 09:43:56;;;;;;;;;1.33;1.33;;;;;;;;5073336;28;9251;-78
2022/02/20 09:46:24;;;;;;;;;1.67;1.00;;;;;;;;5060304;28;9255;-83
2022/02/20 09:48:53;;;;;;;;;4.00;0.00;;;;;;;;5059994;28;9175;-77
2022/02/20 09:51:21;;;;;;;;;3.33;1.00;;;;;;;;5041299;28;9274;-80
2022/02/20 09:53:49;;;;;;;;;3.00;1.00;;;;;;;;5052387;28;9015;-79
2022/02/20 09:56:17;;;;;;;;;4.33;1.67;;;;;;;;5065681;28;9031;-78
2022/02/20 09:58:44;;;;;;;;;1.00;1.00;;;;;;;;5063673;28;9028;-84
2022/02/20 10:01:14;;;;;;;;;2.00;1.67;;;;;;;;5057779;28;8900;-80
2022/02/20 10:03:42;;;;;;;;;1.75;1.75;;;;;;;;5052910;28;9056;-78
2022/02/20 10:06:11;;;;;;;;;0.50;0.50;;;;;;;;5054508;28;8872;-78
2022/02/20 10:08:42;;;;;;;;;2.75;1.50;;;;;;;;5061746;28;8969;-80
2022/02/20 10:11:21;;;;;;;;;1.00;1.00;;;;;;;;5057570;28;8864;-78
2022/02/20 10:13:50;;;;;;;;;1.50;1.00;;;;;;;;5049737;28;8862;-80
2022/02/20 10:16:25;;;;;;;;;0.00;0.00;;;;;;;;5060452;28;8895;-79
2022/02/20 10:18:54;;;;;;;;;3.00;1.25;;;;;;;;5057449;28;8896;-82
2022/02/20 10:21:23;;;;;;;;;7.75;1.00;;;;;;;;5063220;28;8868;-78
2022/02/20 10:23:54;;;;;;;;;1.00;1.00;;;;;;;;5052543;28;8866;-79
2022/02/20 10:26:27;;;;;;;;;1.00;1.00;;;;;;;;5059265;28;8884;-76
2022/02/20 10:29:04;;;;;;;;;0.50;0.50;;;;;;;;5040233;28;8884;-77
2022/02/20 10:31:49;;;;;;;;;1.00;1.00;;;;;;;;5058281;28;8829;-76
2022/02/20 10:34:21;;;;;;;;;2.50;1.50;;;;;;;;5060492;28;9681;-77
2022/02/20 10:36:53;;;;;;;;;1.00;1.00;;;;;;;;5056879;28;8882;-85
2022/02/20 10:39:27;;;;;;;;;2.25;0.00;;;;;;;;5069326;28;8892;-82
2022/02/20 10:41:55;;;;;;;;;1.00;1.00;;;;;;;;5047841;28;8852;-77
2022/02/20 10:44:23;;;;;;;;;1.00;1.00;;;;;;;;5064529;28;8892;-79
2022/02/20 10:47:09;;;;;;;;;0.25;0.25;;;;;;;;5071222;28;8884;-82
2022/02/20 10:49:37;;;;;;;;;3.00;0.75;;;;;;;;5056756;28;8891;-79
2022/02/20 10:52:06;;;;;;;;;1.00;1.00;;;;;;;;5058799;28;10173;-84
2022/02/20 10:54:34;;;;;;;;;3.25;1.00;;;;;;;;5065108;28;8876;-80
2022/02/20 10:57:02;;;;;;;;;5.00;1.50;;;;;;;;5059777;28;8864;-78
2022/02/20 10:59:50;;;;;;;;;1.75;1.75;;;;;;;;5057774;28;8945;-74
2022/02/20 11:02:18;;;;;;;;;4.00;3.00;;;;;;;;5062928;28;8832;-79
2022/02/20 11:04:47;;;;;;;;;8.00;2.00;;;;;;;;5044668;28;8853;-75
2022/02/20 11:07:17;;;;;;;;;3.25;1.00;;;;;;;;5060691;28;9021;-77
2022/02/20 11:09:46;;;;;;;;;2.00;0.00;;;;;;;;5043426;28;8886;-81
2022/02/20 11:12:14;;;;;;;;;2.33;1.00;;;;;;;;5059869;28;8995;-78
2022/02/20 11:53:07;;;;;;;;;1.00;0.75;;;;;;;;5010992;28;8856;-76
2022/02/20 11:55:37;;;;;;;;;5.00;1.25;;;;;;;;5010990;28;8888;-85
2022/02/20 11:58:23;;;;;;;;;2.25;1.00;;;;;;;;5013270;28;8881;-82
2022/02/20 12:01:09;;;;;;;;;2.00;2.00;;;;;;;;5014498;28;8824;-78
2022/02/20 12:04:04;;;;;;;;;2.50;1.25;;;;;;;;5017327;28;8860;-76
2022/02/20 12:06:39;;;;;;;;;2.25;0.00;;;;;;;;5013017;28;8872;-76
2022/02/20 12:09:25;;;;;;;;;3.00;1.50;;;;;;;;5020763;28;8878;-81
2022/02/20 12:11:52;;;;;;;;;2.25;1.00;;;;;;;;5018570;28;8847;-89
2022/02/20 12:14:22;;;;;;;;;1.00;1.00;;;;;;;;5014112;28;8861;-81
2022/02/20 12:16:52;;;;;;;;;3.00;1.50;;;;;;;;5020943;28;8878;-82
2022/02/20 12:19:23;;;;;;;;;1.25;1.25;;;;;;;;5020200;28;8961;-82
2022/02/20 12:21:59;;;;;;;;;2.75;2.00;;;;;;;;5019011;28;9050;-76
2022/02/20 12:24:31;;;;;;;;;1.00;1.00;;;;;;;;5018943;28;8891;-76
2022/02/20 12:26:59;;;;;;;;;3.00;1.25;;;;;;;;5009362;28;8868;-76
2022/02/20 12:29:36;;;;;;;;;2.75;2.75;;;;;;;;5019264;28;8864;-75
2022/02/20 12:32:15;;;;;;;;;1.00;1.00;;;;;;;;5011413;28;8823;-76
2022/02/20 12:34:52;;;;;;;;;3.25;1.00;;;;;;;;5016213;28;8848;-83
2022/02/20 12:37:22;;;;;;;;;1.25;1.25;;;;;;;;5018112;28;8993;-79
2022/02/20 12:39:56;;;;;;;;;1.25;1.25;;;;;;;;5016149;28;10001;-76
2022/02/20 12:42:23;;;;;;;;;3.50;1.00;;;;;;;;5014286;28;8852;-78
2022/02/20 12:44:51;;;;;;;;;2.00;2.00;;;;;;;;5010618;28;8936;-74
2022/02/20 12:47:19;;;;;;;;;2.00;0.50;;;;;;;;5011559;28;9006;-77
2022/02/20 12:49:55;;;;;;;;;1.00;1.00;;;;;;;;5013179;28;8876;-77
2022/02/20 12:52:23;;;;;;;;;1.00;1.00;;;;;;;;5051274;28;8872;-76
2022/02/20 12:54:59;;;;;;;;;1.00;1.00;;;;;;;;5057918;28;9587;-80
2022/02/20 12:57:28;;;;;;;;;4.00;1.75;;;;;;;;5059308;28;8877;-79
2022/02/20 12:59:59;;;;;;;;;4.00;1.00;;;;;;;;5058532;28;8946;-83
2022/02/20 13:02:38;;;;;;;;;1.25;1.25;;;;;;;;5057409;28;8862;-83
2022/02/20 13:05:08;;;;;;;;;1.25;1.25;;;;;;;;5058022;28;8872;-78
2022/02/20 13:07:40;;;;;;;;;3.75;2.50;;;;;;;;5058602;28;8872;-82
2022/02/20 13:10:10;;;;;;;;;3.00;1.00;;;;;;;;5058334;28;8877;-89
2022/02/20 13:12:37;;;;;;;;;1.50;1.00;;;;;;;;5056799;28;9790;-80
2022/02/20 13:15:09;;;;;;;;;2.00;2.00;;;;;;;;5053470;28;8868;-81
2022/02/20 13:17:47;;;;;;;;;7.50;0.50;;;;;;;;5061053;28;8876;-81
2022/02/20 13:20:43;;;;;;;;;2.50;2.00;;;;;;;;5033783;28;8878;-78
2022/02/20 13:23:29;;;;;;;;;0.00;0.00;;;;;;;;5030734;28;8883;-80
2022/02/20 13:26:01;;;;;;;;;3.00;2.00;;;;;;;;5037341;28;8854;-81
2022/02/20 13:28:30;;;;;;;;;7.25;4.75;;;;;;;;5057579;28;8868;-79
2022/02/20 13:30:58;;;;;;;;;2.00;2.00;;;;;;;;5058565;28;8963;-78
2022/02/20 13:33:44;;;;;;;;;3.50;2.00;;;;;;;;5057972;28;8864;-79
2022/02/20 13:36:12;;;;;;;;;2.25;1.00;;;;;;;;5054749;28;8858;-77
2022/02/20 13:38:40;;;;;;;;;2.25;2.00;;;;;;;;5054142;28;8872;-87
2022/02/20 13:41:14;;;;;;;;;1.00;1.00;;;;;;;;5064415;28;8897;-78
2022/02/20 13:43:44;;;;;;;;;1.50;1.00;;;;;;;;5055642;28;8993;-78
2022/02/20 13:46:13;;;;;;;;;6.25;3.00;;;;;;;;5062808;28;9340;-78
2022/02/20 13:48:42;;;;;;;;;2.00;2.00;;;;;;;;5063056;28;8895;-79
2022/02/20 13:51:18;;;;;;;;;2.75;1.25;;;;;;;;5059050;28;9668;-81
2022/02/20 13:53:48;;;;;;;;;2.00;2.00;;;;;;;;5061843;28;9399;-80
2022/02/20 13:56:19;;;;;;;;;3.00;1.75;;;;;;;;5062648;28;8876;-77
2022/02/20 13:58:56;;;;;;;;;2.00;1.25;;;;;;;;5060791;28;8890;-78
2022/02/20 14:01:24;;;;;;;;;1.00;1.00;;;;;;;;5064799;28;8805;-78
2022/02/20 14:03:52;;;;;;;;;4.25;1.50;;;;;;;;5072837;28;9093;-80
2022/02/20 14:06:20;;;;;;;;;2.00;2.00;;;;;;;;5059493;28;9373;-79
2022/02/20 14:08:50;;;;;;;;;3.00;1.00;;;;;;;;5056507;28;8872;-82
2022/02/20 14:11:19;;;;;;;;;6.75;1.50;;;;;;;;5064210;28;8899;-78
2022/02/20 14:13:46;;;;;;;;;2.50;2.00;;;;;;;;5055838;28;8868;-78
2022/02/20 14:16:19;;;;;;;;;2.00;2.00;;;;;;;;5043806;28;8868;-81
2022/02/20 14:18:49;;;;;;;;;3.00;1.75;;;;;;;;5059589;28;8880;-77
2022/02/20 14:21:20;;;;;;;;;3.75;2.00;;;;;;;;5069136;28;8897;-78
2022/02/20 14:23:50;;;;;;;;;1.00;1.00;;;;;;;;5062207;28;8879;-79
2022/02/20 14:26:24;;;;;;;;;4.00;2.50;;;;;;;;5061753;28;8883;-78
2022/02/20 14:28:56;;;;;;;;;3.00;2.50;;;;;;;;5037764;28;8899;-80
2022/02/20 14:31:28;;;;;;;;;4.00;2.00;;;;;;;;5061105;28;8899;-74
2022/02/20 14:33:59;;;;;;;;;3.75;2.00;;;;;;;;5057452;28;8910;-75
2022/02/20 14:36:31;;;;;;;;;1.50;1.50;;;;;;;;5068639;28;8864;-77
2022/02/20 14:39:04;;;;;;;;;5.50;1.00;;;;;;;;5061482;28;8872;-78
2022/02/20 14:41:33;;;;;;;;;6.00;2.25;;;;;;;;5059400;28;8852;-77
2022/02/20 14:44:01;;;;;;;;;4.50;3.00;;;;;;;;5041884;28;9069;-78
2022/02/20 14:46:29;;;;;;;;;3.75;2.50;;;;;;;;5046124;28;8881;-75
2022/02/20 14:48:59;;;;;;;;;4.00;1.00;;;;;;;;5058964;28;8894;-81
2022/02/20 14:51:28;;;;;;;;;4.50;3.25;;;;;;;;5061696;28;8868;-77
2022/02/20 14:53:55;;;;;;;;;3.00;2.00;;;;;;;;5061432;28;8878;-76
2022/02/20 14:56:24;;;;;;;;;2.50;2.50;;;;;;;;5058461;28;8900;-78
2022/02/20 14:58:53;;;;;;;;;4.00;1.00;;;;;;;;5043849;28;8879;-76
2022/02/20 15:01:20;;;;;;;;;2.50;1.00;;;;;;;;5060169;28;8824;-77
2022/02/20 15:03:48;;;;;;;;;7.50;2.25;;;;;;;;5060716;28;8882;-76
2022/02/20 15:06:15;;;;;;;;;1.00;1.00;;;;;;;;5060898;28;8886;-76
2022/02/20 15:08:43;;;;;;;;;4.00;3.00;;;;;;;;5045864;28;8931;-77
2022/02/20 15:11:11;;;;;;;;;3.75;2.00;;;;;;;;5061313;28;8885;-78
2022/02/20 15:13:40;;;;;;;;;2.75;2.75;;;;;;;;5045111;28;8880;-77
2022/02/20 15:16:09;;;;;;;;;3.50;2.00;;;;;;;;5059944;28;8867;-80
2022/02/20 15:18:37;;;;;;;;;2.50;2.50;;;;;;;;5060242;28;9032;-77
2022/02/20 15:21:04;;;;;;;;;2.00;2.00;;;;;;;;5058088;28;8886;-78
2022/02/20 15:23:32;;;;;;;;;3.25;2.75;;;;;;;;5056629;28;8872;-76
2022/02/20 15:26:00;;;;;;;;;3.75;2.50;;;;;;;;5064017;28;8860;-77
2022/02/20 15:28:27;;;;;;;;;2.00;2.00;;;;;;;;5062994;28;8890;-77
2022/02/20 15:30:57;;;;;;;;;2.00;2.00;;;;;;;;5056349;28;8878;-77
2022/02/20 15:33:25;;;;;;;;;3.00;3.00;;;;;;;;5058140;28;8874;-78
2022/02/20 15:35:53;;;;;;;;;2.00;2.00;;;;;;;;5060812;28;8901;-77
2022/02/20 15:38:21;;;;;;;;;3.25;3.00;;;;;;;;5060653;28;8841;-76